createdAt,value
2016-08-29T00:00:25.570Z,23.74
2016-08-29T00:01:34.342Z,23.75
2016-08-29T00:02:28.212Z,23.75
2016-08-29T00:03:34.643Z,23.75
2016-08-29T00:04:18.300Z,23.75
2016-08-29T00:05:25.211Z,23.75
2016-08-29T00:06:31.630Z,23.76
2016-08-29T00:07:33.112Z,23.75
2016-08-29T00:08:33.755Z,23.75
2016-08-29T00:09:43.704Z,23.75
2016-08-29T00:10:37.283Z,23.78
2016-08-29T00:11:39.427Z,24.28
2016-08-29T00:12:32.392Z,24.34
2016-08-29T00:13:39.343Z,24.37
2016-08-29T00:14:39.847Z,24.38
2016-08-29T00:15:36.345Z,24.39
2016-08-29T00:16:33.562Z,24.39
2016-08-29T00:17:29.719Z,24.40
2016-08-29T00:18:41.261Z,24.40
2016-08-29T00:19:45.062Z,24.40
2016-08-29T00:20:36.797Z,24.04
2016-08-29T00:21:45.205Z,23.87
2016-08-29T00:22:39.465Z,23.86
2016-08-29T00:23:30.470Z,23.81
2016-08-29T00:24:25.665Z,23.79
2016-08-29T00:25:34.158Z,23.76
2016-08-29T00:26:30.800Z,23.76
2016-08-29T00:27:22.062Z,23.76
2016-08-29T00:28:20.084Z,23.75
2016-08-29T00:29:22.732Z,23.76
2016-08-29T00:30:25.706Z,24.29
2016-08-29T00:31:36.654Z,24.34
2016-08-29T00:32:25.711Z,24.36
2016-08-29T00:33:26.039Z,24.38
2016-08-29T00:34:27.981Z,24.40
2016-08-29T00:35:34.564Z,24.40
2016-08-29T00:36:25.139Z,24.39
2016-08-29T00:37:26.033Z,24.39
2016-08-29T00:38:25.870Z,23.86
2016-08-29T00:39:29.686Z,23.81
2016-08-29T00:40:18.104Z,23.79
2016-08-29T00:41:22.365Z,23.78
2016-08-29T00:42:33.741Z,23.77
2016-08-29T00:43:33.412Z,23.76
2016-08-29T00:44:24.276Z,23.76
2016-08-29T00:45:34.023Z,23.76
2016-08-29T00:46:28.301Z,23.79
2016-08-29T00:47:27.855Z,23.75
2016-08-29T00:48:35.017Z,23.75
2016-08-29T00:49:33.837Z,23.76
2016-08-29T00:50:17.617Z,23.75
2016-08-29T00:51:29.245Z,23.79
2016-08-29T00:52:22.460Z,23.75
2016-08-29T00:53:23.374Z,23.77
2016-08-29T00:54:24.454Z,23.75
2016-08-29T00:55:21.177Z,23.79
2016-08-29T00:56:25.785Z,23.75
2016-08-29T00:57:31.666Z,23.79
2016-08-29T00:58:34.033Z,23.74
2016-08-29T00:59:37.084Z,23.74
2016-08-29T01:00:31.564Z,23.74
2016-08-29T01:01:20.945Z,23.75
2016-08-29T01:02:33.958Z,23.74
2016-08-29T01:03:14.857Z,23.80
2016-08-29T01:04:20.149Z,23.74
2016-08-29T01:05:30.985Z,23.74
2016-08-29T01:06:40.879Z,23.74
2016-08-29T01:07:20.007Z,23.74
2016-08-29T01:08:27.971Z,23.74
2016-08-29T01:09:28.360Z,23.75
2016-08-29T01:10:21.195Z,23.74
2016-08-29T01:11:25.748Z,23.74
2016-08-29T01:12:23.868Z,23.74
2016-08-29T01:13:22.564Z,23.75
2016-08-29T01:14:20.590Z,23.74
2016-08-29T01:15:24.262Z,23.79
2016-08-29T01:16:23.282Z,23.73
2016-08-29T01:17:34.417Z,23.73
2016-08-29T01:18:26.454Z,23.74
2016-08-29T01:19:27.287Z,23.74
2016-08-29T01:20:28.238Z,23.74
2016-08-29T01:21:21.444Z,23.73
2016-08-29T01:22:25.793Z,23.74
2016-08-29T01:23:27.730Z,23.74
2016-08-29T01:24:27.698Z,23.76
2016-08-29T01:25:22.635Z,24.28
2016-08-29T01:26:32.726Z,24.32
2016-08-29T01:27:22.214Z,24.35
2016-08-29T01:28:32.384Z,24.36
2016-08-29T01:29:29.585Z,23.86
2016-08-29T01:30:17.910Z,23.84
2016-08-29T01:31:22.525Z,23.76
2016-08-29T01:32:25.775Z,23.76
2016-08-29T01:33:35.159Z,23.75
2016-08-29T01:34:19.117Z,23.74
2016-08-29T01:35:37.448Z,23.73
2016-08-29T01:36:26.086Z,23.74
2016-08-29T01:37:22.675Z,23.74
2016-08-29T01:38:23.376Z,23.74
2016-08-29T01:39:41.389Z,23.74
2016-08-29T01:40:34.021Z,23.74
2016-08-29T01:41:22.957Z,23.74
2016-08-29T01:42:21.280Z,23.73
2016-08-29T01:43:22.647Z,23.73
2016-08-29T01:44:21.763Z,23.74
2016-08-29T01:45:13.846Z,23.73
2016-08-29T01:46:28.512Z,23.75
2016-08-29T01:47:20.057Z,23.75
2016-08-29T01:48:30.381Z,23.73
2016-08-29T01:49:21.765Z,23.74
2016-08-29T01:50:21.999Z,23.73
2016-08-29T01:51:25.079Z,23.73
2016-08-29T01:52:33.327Z,23.73
2016-08-29T01:53:22.260Z,23.75
2016-08-29T01:54:31.644Z,23.74
2016-08-29T01:55:36.474Z,23.73
2016-08-29T01:56:14.972Z,23.76
2016-08-29T01:57:33.889Z,23.73
2016-08-29T01:58:23.255Z,23.73
2016-08-29T01:59:34.894Z,23.73
2016-08-29T02:00:28.900Z,23.73
2016-08-29T02:01:27.801Z,23.74
2016-08-29T02:02:39.633Z,23.73
2016-08-29T02:03:20.828Z,23.73
2016-08-29T02:04:26.915Z,23.74
2016-08-29T02:05:23.238Z,23.75
2016-08-29T02:06:35.110Z,23.81
2016-08-29T02:07:27.129Z,24.25
2016-08-29T02:08:25.001Z,24.32
2016-08-29T02:09:22.117Z,24.33
2016-08-29T02:10:22.881Z,24.36
2016-08-29T02:11:33.661Z,24.37
2016-08-29T02:12:34.177Z,24.37
2016-08-29T02:13:19.813Z,24.38
2016-08-29T02:14:17.727Z,24.38
2016-08-29T02:15:24.335Z,24.39
2016-08-29T02:16:33.865Z,24.38
2016-08-29T02:17:22.355Z,24.37
2016-08-29T02:18:20.735Z,23.86
2016-08-29T02:19:19.245Z,23.80
2016-08-29T02:20:34.642Z,23.77
2016-08-29T02:21:22.147Z,23.84
2016-08-29T02:22:22.196Z,24.28
2016-08-29T02:23:22.550Z,24.33
2016-08-29T02:24:26.108Z,23.98
2016-08-29T02:25:30.449Z,23.82
2016-08-29T02:26:32.821Z,23.79
2016-08-29T02:27:22.171Z,23.76
2016-08-29T02:28:34.001Z,23.75
2016-08-29T02:29:22.004Z,23.75
2016-08-29T02:30:22.184Z,23.75
2016-08-29T02:31:20.999Z,23.74
2016-08-29T02:32:34.743Z,23.74
2016-08-29T02:33:27.221Z,23.73
2016-08-29T02:34:23.146Z,23.73
2016-08-29T02:35:17.100Z,23.74
2016-08-29T02:36:21.990Z,23.73
2016-08-29T02:37:40.582Z,23.73
2016-08-29T02:38:33.560Z,23.73
2016-08-29T02:39:28.993Z,23.74
2016-08-29T02:40:33.404Z,23.73
2016-08-29T02:41:33.472Z,23.73
2016-08-29T02:42:39.473Z,23.73
2016-08-29T02:43:40.306Z,23.72
2016-08-29T02:44:26.597Z,23.72
2016-08-29T02:45:34.308Z,23.72
2016-08-29T02:46:28.721Z,23.71
2016-08-29T02:47:42.373Z,23.71
2016-08-29T02:48:40.145Z,23.71
2016-08-29T02:49:40.085Z,23.72
2016-08-29T02:50:34.121Z,23.72
2016-08-29T02:51:33.324Z,23.73
2016-08-29T02:52:39.768Z,23.72
2016-08-29T02:53:39.205Z,23.73
2016-08-29T02:54:34.043Z,23.75
2016-08-29T02:55:33.793Z,23.72
2016-08-29T02:56:43.495Z,23.72
2016-08-29T02:57:38.910Z,23.72
2016-08-29T02:58:34.939Z,23.72
2016-08-29T02:59:33.121Z,23.72
2016-08-29T03:00:38.880Z,23.73
2016-08-29T03:01:27.433Z,23.72
2016-08-29T03:02:25.721Z,23.72
2016-08-29T03:03:47.555Z,23.80
2016-08-29T03:04:33.865Z,23.73
2016-08-29T03:05:22.466Z,23.73
2016-08-29T03:06:29.746Z,23.72
2016-08-29T03:07:32.245Z,23.72
2016-08-29T03:08:26.562Z,23.77
2016-08-29T03:09:38.044Z,23.71
2016-08-29T03:10:32.498Z,23.72
2016-08-29T03:11:25.977Z,23.71
2016-08-29T03:12:25.743Z,23.72
2016-08-29T03:13:43.865Z,23.72
2016-08-29T03:14:44.518Z,23.71
2016-08-29T03:15:37.368Z,23.74
2016-08-29T03:16:33.644Z,23.71
2016-08-29T03:17:30.106Z,23.72
2016-08-29T03:18:32.179Z,23.72
2016-08-29T03:19:33.541Z,23.72
2016-08-29T03:20:28.129Z,23.71
2016-08-29T03:21:33.438Z,23.72
2016-08-29T03:22:35.519Z,23.71
2016-08-29T03:23:28.168Z,23.71
2016-08-29T03:24:22.937Z,23.71
2016-08-29T03:25:38.613Z,23.71
2016-08-29T03:26:31.164Z,23.72
2016-08-29T03:27:36.301Z,23.72
2016-08-29T03:28:33.587Z,23.71
2016-08-29T03:29:38.595Z,23.72
2016-08-29T03:30:41.719Z,23.71
2016-08-29T03:31:28.942Z,23.79
2016-08-29T03:32:39.930Z,23.70
2016-08-29T03:33:33.417Z,23.71
2016-08-29T03:34:32.044Z,23.72
2016-08-29T03:35:34.563Z,23.71
2016-08-29T03:36:31.841Z,23.71
2016-08-29T03:37:38.035Z,23.71
2016-08-29T03:38:40.713Z,23.71
2016-08-29T03:39:31.655Z,23.72
2016-08-29T03:40:27.409Z,23.72
2016-08-29T03:41:32.064Z,23.71
2016-08-29T03:42:35.228Z,23.71
2016-08-29T03:43:39.539Z,23.71
2016-08-29T03:44:34.617Z,23.72
2016-08-29T03:45:38.288Z,23.71
2016-08-29T03:46:37.558Z,23.71
2016-08-29T03:47:41.264Z,23.71
2016-08-29T03:48:35.223Z,23.71
2016-08-29T03:49:33.409Z,23.72
2016-08-29T03:50:33.723Z,23.72
2016-08-29T03:51:33.920Z,23.71
2016-08-29T03:52:39.446Z,23.71
2016-08-29T03:53:37.736Z,23.71
2016-08-29T03:54:31.922Z,23.71
2016-08-29T03:55:33.039Z,23.71
2016-08-29T03:56:31.327Z,23.71
2016-08-29T03:57:35.009Z,23.71
2016-08-29T03:58:27.851Z,23.70
2016-08-29T03:59:43.093Z,23.71
2016-08-29T04:00:15.402Z,23.70
2016-08-29T04:01:28.658Z,23.71
2016-08-29T04:02:37.488Z,23.71
2016-08-29T04:03:33.447Z,23.70
2016-08-29T04:04:33.646Z,23.71
2016-08-29T04:05:34.536Z,23.75
2016-08-29T04:06:21.944Z,24.22
2016-08-29T04:07:33.451Z,24.30
2016-08-29T04:08:22.571Z,24.01
2016-08-29T04:09:28.789Z,23.80
2016-08-29T04:10:39.996Z,23.78
2016-08-29T04:11:34.547Z,23.73
2016-08-29T04:12:36.393Z,23.72
2016-08-29T04:13:28.080Z,23.71
2016-08-29T04:14:34.305Z,23.71
2016-08-29T04:15:29.239Z,23.72
2016-08-29T04:16:39.826Z,23.69
2016-08-29T04:17:25.341Z,23.70
2016-08-29T04:18:25.948Z,23.70
2016-08-29T04:19:25.662Z,23.70
2016-08-29T04:20:31.401Z,23.70
2016-08-29T04:21:22.317Z,23.69
2016-08-29T04:22:30.890Z,24.21
2016-08-29T04:23:30.269Z,24.28
2016-08-29T04:24:36.950Z,24.31
2016-08-29T04:25:39.210Z,24.30
2016-08-29T04:26:29.569Z,23.79
2016-08-29T04:27:39.453Z,23.73
2016-08-29T04:28:35.581Z,23.72
2016-08-29T04:29:40.296Z,23.70
2016-08-29T04:30:22.185Z,23.70
2016-08-29T04:31:33.171Z,23.69
2016-08-29T04:32:34.537Z,23.69
2016-08-29T04:33:40.415Z,23.68
2016-08-29T04:34:25.669Z,23.68
2016-08-29T04:35:32.294Z,23.68
2016-08-29T04:36:38.707Z,23.67
2016-08-29T04:37:35.644Z,23.68
2016-08-29T04:38:25.701Z,23.68
2016-08-29T04:39:25.867Z,23.68
2016-08-29T04:40:16.638Z,23.72
2016-08-29T04:41:21.854Z,23.68
2016-08-29T04:42:21.632Z,23.67
2016-08-29T04:43:19.206Z,23.68
2016-08-29T04:44:19.087Z,23.67
2016-08-29T04:45:19.734Z,23.67
2016-08-29T04:46:19.684Z,23.66
2016-08-29T04:47:29.439Z,23.67
2016-08-29T04:48:33.495Z,23.66
2016-08-29T04:49:21.493Z,23.66
2016-08-29T04:50:22.526Z,23.66
2016-08-29T04:51:22.529Z,23.65
2016-08-29T04:52:24.129Z,23.66
2016-08-29T04:53:20.381Z,23.65
2016-08-29T04:54:26.985Z,23.65
2016-08-29T04:55:21.218Z,23.64
2016-08-29T04:56:17.741Z,23.65
2016-08-29T04:57:17.327Z,23.64
2016-08-29T04:58:17.245Z,23.65
2016-08-29T04:59:26.205Z,23.64
2016-08-29T05:00:20.463Z,24.17
2016-08-29T05:01:20.599Z,24.22
2016-08-29T05:02:20.038Z,24.24
2016-08-29T05:03:18.510Z,23.74
2016-08-29T05:04:21.997Z,23.70
2016-08-29T05:05:14.978Z,23.68
2016-08-29T05:06:33.576Z,23.66
2016-08-29T05:07:25.989Z,23.65
2016-08-29T05:08:36.671Z,23.63
2016-08-29T05:09:33.965Z,23.54
2016-08-29T05:10:30.940Z,23.33
2016-08-29T05:11:26.028Z,23.24
2016-08-29T05:12:26.534Z,23.19
2016-08-29T05:13:33.538Z,23.15
2016-08-29T05:14:35.680Z,23.09
2016-08-29T05:15:27.397Z,23.05
2016-08-29T05:16:33.720Z,23.02
2016-08-29T05:17:36.381Z,22.99
2016-08-29T05:18:44.258Z,22.99
2016-08-29T05:19:45.354Z,22.93
2016-08-29T05:20:35.060Z,22.92
2016-08-29T05:21:28.515Z,22.90
2016-08-29T05:22:32.398Z,22.90
2016-08-29T05:23:28.615Z,22.87
2016-08-29T05:24:29.163Z,22.86
2016-08-29T05:25:37.460Z,22.82
2016-08-29T05:26:34.668Z,22.78
2016-08-29T05:27:34.302Z,22.79
2016-08-29T05:28:33.984Z,22.80
2016-08-29T05:29:34.839Z,22.80
2016-08-29T05:30:19.747Z,22.81
2016-08-29T05:31:39.839Z,22.79
2016-08-29T05:32:36.071Z,22.75
2016-08-29T05:33:40.476Z,22.74
2016-08-29T05:34:39.801Z,22.73
2016-08-29T05:35:39.758Z,22.72
2016-08-29T05:36:40.291Z,22.71
2016-08-29T05:37:37.778Z,22.70
2016-08-29T05:38:38.754Z,22.69
2016-08-29T05:39:43.763Z,22.66
2016-08-29T05:40:48.690Z,22.67
2016-08-29T05:41:34.135Z,22.69
2016-08-29T05:42:34.015Z,22.69
2016-08-29T05:43:33.079Z,22.68
2016-08-29T05:44:46.434Z,22.66
2016-08-29T05:45:47.758Z,22.64
2016-08-29T05:46:33.462Z,22.65
2016-08-29T05:47:40.870Z,22.61
2016-08-29T05:48:33.082Z,22.60
2016-08-29T05:49:34.161Z,22.63
2016-08-29T05:50:40.183Z,22.64
2016-08-29T05:51:33.028Z,22.65
2016-08-29T05:52:34.414Z,22.67
2016-08-29T05:53:46.004Z,22.80
2016-08-29T05:54:37.183Z,22.70
2016-08-29T05:55:35.248Z,22.68
2016-08-29T05:56:34.063Z,22.75
2016-08-29T05:57:35.494Z,22.68
2016-08-29T05:58:38.692Z,22.67
2016-08-29T05:59:35.041Z,22.62
2016-08-29T06:00:45.825Z,22.65
2016-08-29T06:01:45.853Z,22.68
2016-08-29T06:02:32.880Z,22.62
2016-08-29T06:03:44.907Z,22.62
2016-08-29T06:04:37.083Z,22.62
2016-08-29T06:05:40.354Z,22.64
2016-08-29T06:06:35.159Z,22.62
2016-08-29T06:07:46.135Z,22.68
2016-08-29T06:08:36.429Z,22.61
2016-08-29T06:09:40.866Z,22.59
2016-08-29T06:10:47.082Z,22.59
2016-08-29T06:11:36.260Z,22.60
2016-08-29T06:12:34.526Z,22.60
2016-08-29T06:13:39.929Z,22.58
2016-08-29T06:14:31.491Z,22.59
2016-08-29T06:15:28.175Z,22.57
2016-08-29T06:16:38.938Z,22.57
2016-08-29T06:17:41.218Z,22.56
2016-08-29T06:18:34.848Z,22.58
2016-08-29T06:19:41.398Z,22.59
2016-08-29T06:20:31.002Z,22.59
2016-08-29T06:21:46.280Z,22.61
2016-08-29T06:22:39.102Z,22.62
2016-08-29T06:23:41.114Z,22.62
2016-08-29T06:24:38.352Z,22.61
2016-08-29T06:25:34.114Z,22.59
2016-08-29T06:26:29.763Z,22.58
2016-08-29T06:27:40.103Z,22.59
2016-08-29T06:28:24.618Z,22.61
2016-08-29T06:29:37.310Z,22.62
2016-08-29T06:30:32.560Z,22.60
2016-08-29T06:31:39.341Z,22.64
2016-08-29T06:32:33.883Z,22.67
2016-08-29T06:33:42.181Z,22.70
2016-08-29T06:34:39.300Z,22.69
2016-08-29T06:35:55.819Z,22.70
2016-08-29T06:36:40.443Z,22.68
2016-08-29T06:37:37.914Z,22.65
2016-08-29T06:38:40.150Z,22.62
2016-08-29T06:39:40.189Z,22.65
2016-08-29T06:40:38.128Z,22.66
2016-08-29T06:41:53.118Z,22.64
2016-08-29T06:42:31.583Z,23.19
2016-08-29T06:43:33.172Z,23.22
2016-08-29T06:44:25.693Z,23.28
2016-08-29T06:45:40.363Z,23.24
2016-08-29T06:46:33.937Z,23.30
2016-08-29T06:47:28.435Z,23.34
2016-08-29T06:48:43.356Z,22.88
2016-08-29T06:49:28.585Z,22.90
2016-08-29T06:50:35.138Z,22.91
2016-08-29T06:51:28.734Z,22.93
2016-08-29T06:52:31.289Z,22.96
2016-08-29T06:53:34.716Z,22.99
2016-08-29T06:54:38.854Z,23.01
2016-08-29T06:55:53.635Z,23.02
2016-08-29T06:56:32.165Z,23.06
2016-08-29T06:57:36.331Z,23.07
2016-08-29T06:58:26.769Z,23.08
2016-08-29T06:59:39.798Z,23.10
2016-08-29T07:00:41.510Z,23.11
2016-08-29T07:01:36.396Z,23.12
2016-08-29T07:02:35.501Z,23.16
2016-08-29T07:03:34.791Z,23.18
2016-08-29T07:04:38.467Z,23.20
2016-08-29T07:05:34.764Z,23.22
2016-08-29T07:06:39.729Z,23.22
2016-08-29T07:07:41.133Z,23.26
2016-08-29T07:08:42.747Z,23.25
2016-08-29T07:09:41.829Z,23.27
2016-08-29T07:10:34.693Z,23.28
2016-08-29T07:11:30.079Z,23.29
2016-08-29T07:12:43.049Z,23.29
2016-08-29T07:13:43.941Z,23.30
2016-08-29T07:14:35.134Z,23.30
2016-08-29T07:15:35.332Z,23.30
2016-08-29T07:16:26.546Z,23.29
2016-08-29T07:17:38.773Z,23.28
2016-08-29T07:18:38.151Z,23.31
2016-08-29T07:19:37.672Z,23.32
2016-08-29T07:20:39.484Z,23.29
2016-08-29T07:21:35.185Z,23.30
2016-08-29T07:22:35.891Z,23.31
2016-08-29T07:23:32.853Z,23.32
2016-08-29T07:24:33.934Z,23.32
2016-08-29T07:25:45.763Z,23.32
2016-08-29T07:26:47.670Z,23.39
2016-08-29T07:27:37.749Z,23.34
2016-08-29T07:28:44.115Z,23.34
2016-08-29T07:29:39.330Z,23.34
2016-08-29T07:30:55.783Z,23.35
2016-08-29T07:31:38.773Z,23.35
2016-08-29T07:32:44.746Z,23.36
2016-08-29T07:33:51.864Z,23.37
2016-08-29T07:34:34.286Z,23.38
2016-08-29T07:35:35.221Z,23.37
2016-08-29T07:36:38.216Z,23.43
2016-08-29T07:37:44.155Z,23.39
2016-08-29T07:38:36.903Z,23.40
2016-08-29T07:39:34.249Z,23.41
2016-08-29T07:40:35.655Z,23.41
2016-08-29T07:41:42.762Z,23.42
2016-08-29T07:42:38.905Z,23.45
2016-08-29T07:43:32.843Z,23.47
2016-08-29T07:44:38.293Z,23.48
2016-08-29T07:45:32.182Z,23.50
2016-08-29T07:46:37.334Z,23.51
2016-08-29T07:47:34.734Z,23.53
2016-08-29T07:48:23.356Z,23.53
2016-08-29T07:49:32.006Z,23.54
2016-08-29T07:50:40.855Z,23.55
2016-08-29T07:51:32.701Z,23.53
2016-08-29T07:52:35.149Z,23.54
2016-08-29T07:53:38.930Z,23.81
2016-08-29T07:54:23.963Z,24.17
2016-08-29T07:55:28.861Z,24.19
2016-08-29T07:56:35.871Z,24.22
2016-08-29T07:57:33.458Z,24.24
2016-08-29T07:58:19.066Z,24.26
2016-08-29T07:59:22.862Z,24.28
2016-08-29T08:00:31.090Z,24.28
2016-08-29T08:01:34.959Z,24.28
2016-08-29T08:02:35.338Z,24.30
2016-08-29T08:03:17.733Z,24.30
2016-08-29T08:04:13.995Z,24.29
2016-08-29T08:05:32.259Z,23.95
2016-08-29T08:06:38.477Z,23.78
2016-08-29T08:07:40.532Z,23.74
2016-08-29T08:08:33.266Z,23.73
2016-08-29T08:09:13.526Z,23.73
2016-08-29T08:10:13.722Z,23.65
2016-08-29T08:11:14.818Z,23.66
2016-08-29T08:12:13.350Z,23.71
2016-08-29T08:13:12.939Z,23.66
2016-08-29T08:14:13.941Z,23.66
2016-08-29T08:15:14.624Z,23.63
2016-08-29T08:16:14.664Z,23.63
2016-08-29T08:17:28.444Z,23.62
2016-08-29T08:18:26.798Z,23.62
2016-08-29T08:19:18.251Z,23.61
2016-08-29T08:20:18.974Z,23.60
2016-08-29T08:21:12.655Z,23.61
2016-08-29T08:22:22.268Z,23.60
2016-08-29T08:23:33.698Z,23.60
2016-08-29T08:24:28.954Z,23.60
2016-08-29T08:25:32.318Z,23.59
2016-08-29T08:26:45.952Z,23.59
2016-08-29T08:27:32.569Z,23.59
2016-08-29T08:28:34.518Z,23.59
2016-08-29T08:29:39.212Z,23.59
2016-08-29T08:30:44.806Z,23.59
2016-08-29T08:31:37.975Z,23.59
2016-08-29T08:32:32.394Z,23.59
2016-08-29T08:33:28.308Z,23.66
2016-08-29T08:34:36.501Z,23.58
2016-08-29T08:35:28.281Z,23.58
2016-08-29T08:36:42.620Z,23.58
2016-08-29T08:37:35.193Z,23.59
2016-08-29T08:38:39.138Z,23.58
2016-08-29T08:39:50.542Z,23.58
2016-08-29T08:40:45.926Z,23.58
2016-08-29T08:41:37.502Z,23.59
2016-08-29T08:42:37.937Z,23.58
2016-08-29T08:43:32.715Z,23.57
2016-08-29T08:44:33.733Z,23.57
2016-08-29T08:45:40.186Z,23.56
2016-08-29T08:46:32.226Z,23.57
2016-08-29T08:47:37.651Z,23.57
2016-08-29T08:48:47.231Z,23.57
2016-08-29T08:49:33.379Z,23.56
2016-08-29T08:50:26.064Z,23.56
2016-08-29T08:51:26.619Z,23.57
2016-08-29T08:52:33.801Z,23.57
2016-08-29T08:53:34.264Z,23.56
2016-08-29T08:54:37.068Z,23.56
2016-08-29T08:55:40.645Z,23.56
2016-08-29T08:56:33.325Z,23.56
2016-08-29T08:57:35.693Z,23.56
2016-08-29T08:58:25.338Z,23.56
2016-08-29T08:59:27.366Z,23.55
2016-08-29T09:00:35.295Z,23.55
2016-08-29T09:01:40.531Z,23.56
2016-08-29T09:02:37.977Z,23.55
2016-08-29T09:03:35.698Z,23.55
2016-08-29T09:04:37.466Z,23.55
2016-08-29T09:05:42.612Z,23.55
2016-08-29T09:06:39.137Z,23.54
2016-08-29T09:07:39.903Z,23.55
2016-08-29T09:08:26.465Z,23.54
2016-08-29T09:09:38.666Z,23.55
2016-08-29T09:10:17.329Z,23.55
2016-08-29T09:11:17.783Z,23.55
2016-08-29T09:12:23.745Z,23.56
2016-08-29T09:13:18.030Z,23.55
2016-08-29T09:14:16.662Z,23.57
2016-08-29T09:15:15.719Z,23.53
2016-08-29T09:16:14.307Z,24.08
2016-08-29T09:17:11.170Z,24.14
2016-08-29T09:18:14.443Z,23.82
2016-08-29T09:19:13.442Z,23.64
2016-08-29T09:20:18.646Z,23.61
2016-08-29T09:21:19.660Z,23.63
2016-08-29T09:22:15.282Z,23.56
2016-08-29T09:23:20.674Z,23.56
2016-08-29T09:24:33.936Z,23.56
2016-08-29T09:25:39.263Z,23.56
2016-08-29T09:26:41.580Z,23.55
2016-08-29T09:27:40.063Z,23.56
2016-08-29T09:28:27.187Z,23.56
2016-08-29T09:29:34.915Z,23.56
2016-08-29T09:30:39.695Z,23.55
2016-08-29T09:31:41.287Z,23.55
2016-08-29T09:32:35.022Z,23.55
2016-08-29T09:33:39.390Z,23.55
2016-08-29T09:34:33.874Z,23.54
2016-08-29T09:35:43.637Z,23.55
2016-08-29T09:36:35.244Z,23.55
2016-08-29T09:37:34.865Z,23.55
2016-08-29T09:38:33.336Z,23.55
2016-08-29T09:39:39.647Z,23.53
2016-08-29T09:40:31.728Z,23.54
2016-08-29T09:41:38.567Z,23.53
2016-08-29T09:42:33.389Z,24.08
2016-08-29T09:43:35.469Z,24.12
2016-08-29T09:44:42.590Z,24.16
2016-08-29T09:45:38.737Z,24.16
2016-08-29T09:46:39.126Z,24.17
2016-08-29T09:47:41.199Z,24.17
2016-08-29T09:48:33.807Z,24.18
2016-08-29T09:49:34.886Z,24.19
2016-08-29T09:50:44.791Z,23.84
2016-08-29T09:51:28.434Z,23.65
2016-08-29T09:52:44.684Z,23.59
2016-08-29T09:53:40.259Z,23.56
2016-08-29T09:54:47.346Z,23.54
2016-08-29T09:55:41.147Z,23.54
2016-08-29T09:56:26.438Z,23.52
2016-08-29T09:57:38.163Z,23.55
2016-08-29T09:58:49.391Z,23.52
2016-08-29T09:59:40.606Z,23.51
2016-08-29T10:00:40.678Z,23.52
2016-08-29T10:01:42.095Z,23.51
2016-08-29T10:02:34.999Z,23.51
2016-08-29T10:03:39.868Z,23.51
2016-08-29T10:04:44.702Z,23.51
2016-08-29T10:05:40.522Z,23.50
2016-08-29T10:06:33.551Z,23.51
2016-08-29T10:07:34.300Z,23.50
2016-08-29T10:08:37.347Z,23.49
2016-08-29T10:09:30.034Z,23.50
2016-08-29T10:10:34.125Z,23.50
2016-08-29T10:11:29.521Z,23.50
2016-08-29T10:12:33.867Z,23.50
2016-08-29T10:13:40.288Z,23.49
2016-08-29T10:14:34.182Z,23.49
2016-08-29T10:15:41.679Z,23.50
2016-08-29T10:16:33.687Z,23.50
2016-08-29T10:17:44.120Z,23.48
2016-08-29T10:18:37.455Z,23.49
2016-08-29T10:19:40.005Z,23.50
2016-08-29T10:20:38.366Z,23.48
2016-08-29T10:21:35.387Z,23.49
2016-08-29T10:22:38.769Z,23.48
2016-08-29T10:23:41.836Z,23.49
2016-08-29T10:24:39.489Z,23.49
2016-08-29T10:25:39.412Z,23.51
2016-08-29T10:26:34.618Z,23.48
2016-08-29T10:27:37.865Z,23.48
2016-08-29T10:28:32.657Z,23.48
2016-08-29T10:29:39.858Z,23.47
2016-08-29T10:30:38.810Z,23.47
2016-08-29T10:31:33.918Z,24.03
2016-08-29T10:32:40.717Z,24.06
2016-08-29T10:33:38.707Z,24.09
2016-08-29T10:34:37.301Z,24.11
2016-08-29T10:35:46.609Z,24.12
2016-08-29T10:36:38.946Z,24.14
2016-08-29T10:37:34.160Z,23.81
2016-08-29T10:38:35.689Z,23.59
2016-08-29T10:39:32.675Z,23.53
2016-08-29T10:40:33.171Z,23.51
2016-08-29T10:41:29.319Z,23.50
2016-08-29T10:42:29.370Z,23.49
2016-08-29T10:43:39.212Z,23.48
2016-08-29T10:44:41.433Z,23.47
2016-08-29T10:45:41.424Z,23.46
2016-08-29T10:46:34.253Z,23.47
2016-08-29T10:47:39.870Z,23.46
2016-08-29T10:48:34.370Z,23.46
2016-08-29T10:49:39.319Z,23.45
2016-08-29T10:50:44.847Z,23.45
2016-08-29T10:51:29.233Z,23.44
2016-08-29T10:52:38.662Z,23.45
2016-08-29T10:53:30.371Z,23.98
2016-08-29T10:54:45.552Z,24.04
2016-08-29T10:55:32.956Z,24.07
2016-08-29T10:56:38.955Z,24.07
2016-08-29T10:57:35.497Z,24.08
2016-08-29T10:58:32.854Z,24.09
2016-08-29T10:59:34.618Z,24.08
2016-08-29T11:00:40.132Z,24.06
2016-08-29T11:01:34.238Z,24.09
2016-08-29T11:02:35.479Z,23.76
2016-08-29T11:03:32.859Z,23.59
2016-08-29T11:04:33.033Z,23.51
2016-08-29T11:05:38.701Z,23.48
2016-08-29T11:06:39.907Z,23.47
2016-08-29T11:07:27.010Z,23.46
2016-08-29T11:08:37.265Z,23.46
2016-08-29T11:09:39.292Z,23.45
2016-08-29T11:10:33.023Z,23.48
2016-08-29T11:11:32.031Z,23.98
2016-08-29T11:12:39.670Z,24.03
2016-08-29T11:13:33.876Z,24.06
2016-08-29T11:14:34.845Z,23.53
2016-08-29T11:15:27.373Z,23.50
2016-08-29T11:16:29.007Z,23.46
2016-08-29T11:17:43.602Z,23.46
2016-08-29T11:18:40.556Z,23.44
2016-08-29T11:19:40.584Z,23.45
2016-08-29T11:20:33.239Z,23.44
2016-08-29T11:21:41.211Z,23.45
2016-08-29T11:22:42.293Z,23.44
2016-08-29T11:23:26.075Z,23.44
2016-08-29T11:24:47.561Z,23.44
2016-08-29T11:25:32.903Z,23.44
2016-08-29T11:26:34.783Z,23.43
2016-08-29T11:27:33.027Z,23.43
2016-08-29T11:28:35.669Z,23.44
2016-08-29T11:29:41.822Z,23.44
2016-08-29T11:30:46.356Z,23.44
2016-08-29T11:31:40.332Z,23.45
2016-08-29T11:32:27.445Z,23.45
2016-08-29T11:33:26.849Z,23.44
2016-08-29T11:34:42.186Z,23.48
2016-08-29T11:35:41.224Z,23.48
2016-08-29T11:36:32.901Z,23.97
2016-08-29T11:37:37.531Z,24.05
2016-08-29T11:38:34.700Z,24.08
2016-08-29T11:39:22.499Z,23.74
2016-08-29T11:40:41.014Z,23.56
2016-08-29T11:41:32.656Z,23.51
2016-08-29T11:42:39.878Z,23.48
2016-08-29T11:43:35.056Z,23.46
2016-08-29T11:44:38.471Z,23.46
2016-08-29T11:45:35.014Z,23.51
2016-08-29T11:46:33.449Z,23.52
2016-08-29T11:47:33.300Z,23.46
2016-08-29T11:48:31.335Z,23.46
2016-08-29T11:49:36.946Z,23.47
2016-08-29T11:50:33.979Z,23.46
2016-08-29T11:51:36.529Z,23.46
2016-08-29T11:52:40.056Z,23.46
2016-08-29T11:53:40.315Z,23.46
2016-08-29T11:54:46.341Z,23.47
2016-08-29T11:55:39.388Z,23.47
2016-08-29T11:56:36.742Z,23.48
2016-08-29T11:57:47.995Z,23.47
2016-08-29T11:58:27.781Z,23.49
2016-08-29T11:59:33.517Z,23.51
2016-08-29T12:00:31.812Z,23.50
2016-08-29T12:01:34.647Z,23.52
2016-08-29T12:02:34.174Z,23.52
2016-08-29T12:03:44.682Z,23.52
2016-08-29T12:04:34.331Z,23.54
2016-08-29T12:05:35.154Z,23.54
2016-08-29T12:06:38.818Z,23.55
2016-08-29T12:07:32.573Z,23.54
2016-08-29T12:08:38.337Z,23.54
2016-08-29T12:09:15.383Z,23.56
2016-08-29T12:10:24.108Z,23.56
2016-08-29T12:11:20.129Z,23.57
2016-08-29T12:12:27.237Z,23.58
2016-08-29T12:13:27.188Z,23.58
2016-08-29T12:14:35.103Z,23.57
2016-08-29T12:15:28.677Z,23.57
2016-08-29T12:16:24.523Z,23.56
2016-08-29T12:17:24.980Z,23.56
2016-08-29T12:18:33.537Z,23.55
2016-08-29T12:19:43.904Z,23.55
2016-08-29T12:20:28.071Z,23.55
2016-08-29T12:21:25.373Z,23.55
2016-08-29T12:22:26.980Z,23.56
2016-08-29T12:23:14.143Z,23.55
2016-08-29T12:24:25.595Z,23.54
2016-08-29T12:25:30.564Z,23.54
2016-08-29T12:26:31.786Z,23.55
2016-08-29T12:27:16.092Z,23.54
2016-08-29T12:28:15.645Z,23.53
2016-08-29T12:29:12.806Z,24.09
2016-08-29T12:30:16.845Z,24.14
2016-08-29T12:31:23.038Z,24.15
2016-08-29T12:32:20.171Z,24.17
2016-08-29T12:33:17.256Z,24.18
2016-08-29T12:34:13.857Z,24.19
2016-08-29T12:35:22.559Z,23.86
2016-08-29T12:36:26.860Z,23.66
2016-08-29T12:37:22.818Z,23.61
2016-08-29T12:38:24.280Z,23.59
2016-08-29T12:39:27.032Z,23.57
2016-08-29T12:40:28.435Z,23.55
2016-08-29T12:41:36.925Z,23.55
2016-08-29T12:42:27.039Z,23.54
2016-08-29T12:43:28.699Z,23.54
2016-08-29T12:44:23.026Z,23.54
2016-08-29T12:45:28.196Z,23.54
2016-08-29T12:46:34.147Z,23.54
2016-08-29T12:47:25.951Z,23.58
2016-08-29T12:48:29.045Z,23.54
2016-08-29T12:49:31.808Z,23.55
2016-08-29T12:50:22.162Z,23.55
2016-08-29T12:51:27.647Z,23.55
2016-08-29T12:52:34.066Z,23.56